createdAt,value
2018-08-16T00:01:20.582Z,83.10
2018-08-16T00:03:49.117Z,83.60
2018-08-16T00:06:17.735Z,83.50
2018-08-16T00:08:46.251Z,83.70
2018-08-16T00:11:14.805Z,83.60
2018-08-16T00:13:43.334Z,83.60
2018-08-16T00:16:11.840Z,83.50
2018-08-16T00:18:40.380Z,83.90
2018-08-16T00:21:08.900Z,84.10
2018-08-16T00:23:37.464Z,84.10
2018-08-16T00:26:05.987Z,84.00
2018-08-16T00:28:34.506Z,84.10
2018-08-16T00:31:03.048Z,84.30
2018-08-16T00:33:32.076Z,84.20
2018-08-16T00:36:00.605Z,84.10
2018-08-16T00:38:29.145Z,84.00
2018-08-16T00:40:57.682Z,84.10
2018-08-16T00:43:26.254Z,84.40
2018-08-16T00:45:54.751Z,84.60
2018-08-16T00:48:23.263Z,84.60
2018-08-16T00:50:51.794Z,84.60
2018-08-16T00:53:20.300Z,84.60
2018-08-16T00:55:48.843Z,84.70
2018-08-16T00:58:17.380Z,84.70
2018-08-16T01:00:45.982Z,84.90
2018-08-16T01:03:14.574Z,84.70
2018-08-16T01:05:43.082Z,84.70
2018-08-16T01:08:11.672Z,84.90
2018-08-16T01:10:40.252Z,84.90
2018-08-16T01:13:08.774Z,84.80
2018-08-16T01:15:37.304Z,85.10
2018-08-16T01:18:05.855Z,85.10
2018-08-16T01:20:34.447Z,85.40
2018-08-16T01:23:03.025Z,85.50
2018-08-16T01:25:31.567Z,85.20
2018-08-16T01:28:00.094Z,85.20
2018-08-16T01:30:28.651Z,85.10
2018-08-16T01:32:57.177Z,85.20
2018-08-16T01:35:25.811Z,85.40
2018-08-16T01:37:54.306Z,85.50
2018-08-16T01:40:22.940Z,85.60
2018-08-16T01:42:51.458Z,85.90
2018-08-16T01:45:19.994Z,86.00
2018-08-16T01:47:48.527Z,85.90
2018-08-16T01:50:17.062Z,85.80
2018-08-16T01:52:45.592Z,86.10
2018-08-16T01:55:14.100Z,86.20
2018-08-16T01:57:42.624Z,86.50
2018-08-16T02:00:11.147Z,86.60
2018-08-16T02:02:39.997Z,86.70
2018-08-16T02:05:09.067Z,86.90
2018-08-16T02:07:37.563Z,87.00
2018-08-16T02:10:07.232Z,86.90
2018-08-16T02:12:35.848Z,86.70
2018-08-16T02:15:05.380Z,86.70
2018-08-16T02:17:33.893Z,86.80
2018-08-16T02:20:02.428Z,87.00
2018-08-16T02:22:30.960Z,87.10
2018-08-16T02:24:59.475Z,87.30
2018-08-16T02:27:28.000Z,87.30
2018-08-16T02:29:56.546Z,87.40
2018-08-16T02:32:25.445Z,87.50
2018-08-16T02:34:53.952Z,87.70
2018-08-16T02:37:22.484Z,87.60
2018-08-16T02:39:51.041Z,87.60
2018-08-16T02:42:19.667Z,87.50
2018-08-16T02:44:48.183Z,87.50
2018-08-16T02:47:16.714Z,87.60
2018-08-16T02:49:45.230Z,87.70
2018-08-16T02:52:13.743Z,87.60
2018-08-16T02:54:42.236Z,88.00
2018-08-16T02:57:17.462Z,88.10
2018-08-16T02:59:46.046Z,88.10
2018-08-16T03:02:14.555Z,88.00
2018-08-16T03:04:43.128Z,88.10
2018-08-16T03:07:11.653Z,88.20
2018-08-16T03:09:40.204Z,88.50
2018-08-16T03:12:10.240Z,88.70
2018-08-16T03:14:39.320Z,88.60
2018-08-16T03:17:07.945Z,88.10
2018-08-16T03:19:36.465Z,88.10
2018-08-16T03:22:05.073Z,87.80
2018-08-16T03:24:33.614Z,87.70
2018-08-16T03:27:02.197Z,87.70
2018-08-16T03:29:30.734Z,87.60
2018-08-16T03:31:59.288Z,87.50
2018-08-16T03:34:27.813Z,87.30
2018-08-16T03:36:56.365Z,87.10
2018-08-16T03:39:24.883Z,87.20
2018-08-16T03:41:53.473Z,87.00
2018-08-16T03:44:21.997Z,87.10
2018-08-16T03:46:50.667Z,87.10
2018-08-16T03:49:19.206Z,87.20
2018-08-16T03:51:47.760Z,87.00
2018-08-16T03:54:16.383Z,87.10
2018-08-16T03:56:45.219Z,87.10
2018-08-16T03:59:13.740Z,87.30
2018-08-16T04:01:42.274Z,87.40
2018-08-16T04:04:10.813Z,87.50
2018-08-16T04:06:39.327Z,87.90
2018-08-16T04:09:08.328Z,87.50
2018-08-16T04:11:37.107Z,87.60
2018-08-16T04:14:05.674Z,87.70
2018-08-16T04:16:34.182Z,87.70
2018-08-16T04:19:02.728Z,87.60
2018-08-16T04:21:31.257Z,87.30
2018-08-16T04:23:59.836Z,87.20
2018-08-16T04:26:28.471Z,87.10
2018-08-16T04:28:57.083Z,86.70
2018-08-16T04:31:25.555Z,86.70
2018-08-16T04:33:54.121Z,86.70
2018-08-16T04:36:22.651Z,87.00
2018-08-16T04:38:51.170Z,87.20
2018-08-16T04:41:19.717Z,87.70
2018-08-16T04:43:48.232Z,88.70
2018-08-16T04:46:16.814Z,88.10
2018-08-16T04:48:45.346Z,87.60
2018-08-16T04:51:13.960Z,87.60
2018-08-16T04:53:42.465Z,87.40
2018-08-16T04:56:11.020Z,87.80
2018-08-16T04:58:39.542Z,87.70
2018-08-16T05:01:08.083Z,87.50
2018-08-16T05:03:36.642Z,87.30
2018-08-16T05:06:05.309Z,87.10
2018-08-16T05:08:33.817Z,86.60
2018-08-16T05:11:02.413Z,86.60
2018-08-16T05:13:30.927Z,86.50
2018-08-16T05:15:59.498Z,86.20
2018-08-16T05:18:28.023Z,86.00
2018-08-16T05:20:56.534Z,85.90
2018-08-16T05:23:25.064Z,86.10
2018-08-16T05:25:53.617Z,86.40
2018-08-16T05:28:22.165Z,86.60
2018-08-16T05:30:50.869Z,87.40
2018-08-16T05:33:19.418Z,88.10
2018-08-16T05:35:47.980Z,87.60
2018-08-16T05:38:16.588Z,86.50
2018-08-16T05:40:45.127Z,86.10
2018-08-16T05:43:13.679Z,86.00
2018-08-16T05:45:42.188Z,86.00
2018-08-16T05:48:10.738Z,86.10
2018-08-16T05:50:39.281Z,86.20
2018-08-16T05:53:07.826Z,86.00
2018-08-16T05:55:36.351Z,85.90
2018-08-16T05:58:04.943Z,85.80
2018-08-16T06:00:33.475Z,85.50
2018-08-16T06:03:02.008Z,85.60
2018-08-16T06:05:30.562Z,85.70
2018-08-16T06:07:59.196Z,85.90
2018-08-16T06:10:28.194Z,85.00
2018-08-16T06:12:56.820Z,84.50
2018-08-16T06:15:25.460Z,84.40
2018-08-16T06:17:54.011Z,84.30
2018-08-16T06:20:22.627Z,84.30
2018-08-16T06:22:51.169Z,84.10
2018-08-16T06:25:19.773Z,83.60
2018-08-16T06:27:48.367Z,78.90
2018-08-16T06:30:17.776Z,76.90
2018-08-16T06:32:46.744Z,75.00
2018-08-16T06:35:15.716Z,74.10
2018-08-16T06:37:44.239Z,71.70
2018-08-16T06:40:16.372Z,73.00
2018-08-16T06:42:45.607Z,73.70
2018-08-16T06:45:14.154Z,73.00
2018-08-16T06:47:42.780Z,73.30
2018-08-16T06:50:11.371Z,73.70
2018-08-16T06:52:40.116Z,70.70
2018-08-16T06:55:09.726Z,71.00
2018-08-16T06:57:38.342Z,70.00
2018-08-16T07:00:07.657Z,70.30
2018-08-16T07:02:36.238Z,71.00
2018-08-16T07:05:06.070Z,71.00
2018-08-16T07:07:34.632Z,68.60
2018-08-16T07:10:04.850Z,69.00
2018-08-16T07:12:33.557Z,69.50
2018-08-16T07:15:02.147Z,67.20
2018-08-16T07:17:30.708Z,66.50
2018-08-16T07:19:59.257Z,65.10
2018-08-16T07:22:27.790Z,64.90
2018-08-16T07:24:56.461Z,64.50
2018-08-16T07:27:24.963Z,64.20
2018-08-16T07:29:53.511Z,62.90
2018-08-16T07:32:22.048Z,62.60
2018-08-16T07:34:50.575Z,64.30
2018-08-16T07:37:19.133Z,63.00
2018-08-16T07:39:47.786Z,62.80
2018-08-16T07:42:16.397Z,61.80
2018-08-16T07:44:44.931Z,61.80
2018-08-16T07:47:13.494Z,61.40
2018-08-16T07:49:42.076Z,63.00
2018-08-16T07:52:10.662Z,63.20
2018-08-16T07:54:39.211Z,61.00
2018-08-16T07:57:07.833Z,60.50
2018-08-16T07:59:36.324Z,61.70
2018-08-16T08:02:04.978Z,59.30
2018-08-16T08:04:33.508Z,58.70
2018-08-16T08:07:02.069Z,59.20
2018-08-16T08:09:30.798Z,58.10
2018-08-16T08:11:59.266Z,57.30
2018-08-16T08:14:27.781Z,57.10
2018-08-16T08:16:56.362Z,58.00
2018-08-16T08:19:24.953Z,56.20
2018-08-16T08:21:53.609Z,54.30
2018-08-16T08:24:22.154Z,51.90
2018-08-16T08:26:50.672Z,51.50
2018-08-16T08:29:19.212Z,51.60
2018-08-16T08:31:47.762Z,51.80
2018-08-16T08:34:16.317Z,50.70
2018-08-16T08:36:56.182Z,51.90
2018-08-16T08:39:24.777Z,53.10
2018-08-16T08:41:53.302Z,53.80
2018-08-16T08:44:26.544Z,53.30
2018-08-16T08:47:05.852Z,52.10
2018-08-16T08:49:34.404Z,52.70
2018-08-16T08:52:02.989Z,51.10
2018-08-16T08:54:45.361Z,54.20
2018-08-16T08:57:25.157Z,51.80
2018-08-16T08:59:53.754Z,53.30
2018-08-16T09:02:22.349Z,50.50
2018-08-16T09:04:50.980Z,50.40
2018-08-16T09:07:20.465Z,52.30
2018-08-16T09:11:03.869Z,53.90
2018-08-16T09:13:43.705Z,52.70
2018-08-16T09:16:15.700Z,50.40
2018-08-16T09:18:44.293Z,51.00
2018-08-16T09:21:13.438Z,50.00
2018-08-16T09:23:42.021Z,50.80
2018-08-16T09:26:16.006Z,51.70
2018-08-16T09:28:44.557Z,51.10
2018-08-16T09:31:25.054Z,51.00
2018-08-16T09:34:09.599Z,48.80
2018-08-16T09:36:38.207Z,51.10
2018-08-16T09:39:07.995Z,49.50
2018-08-16T09:41:36.685Z,49.70
2018-08-16T09:44:05.397Z,47.80
2018-08-16T09:47:01.147Z,48.80
2018-08-16T09:49:31.482Z,50.30
2018-08-16T09:52:00.278Z,52.50
2018-08-16T09:54:28.943Z,49.20
2018-08-16T09:56:58.913Z,50.40
2018-08-16T09:59:27.509Z,50.30
2018-08-16T10:01:56.167Z,51.50
2018-08-16T10:04:24.803Z,50.30
2018-08-16T10:06:53.462Z,48.20
2018-08-16T10:09:23.631Z,46.40
2018-08-16T10:11:52.430Z,46.40
2018-08-16T10:14:23.925Z,46.50
2018-08-16T10:16:52.535Z,47.40
2018-08-16T10:19:21.465Z,47.20
2018-08-16T10:21:50.053Z,50.20
2018-08-16T10:24:18.639Z,49.00
2018-08-16T10:26:47.319Z,47.30
2018-08-16T10:29:15.845Z,48.30
2018-08-16T10:31:44.429Z,47.40
2018-08-16T10:34:13.004Z,45.40
2018-08-16T10:36:41.602Z,41.70
2018-08-16T10:39:11.359Z,43.10
2018-08-16T10:41:40.017Z,40.30
2018-08-16T10:44:08.743Z,38.80
2018-08-16T10:46:37.320Z,40.10
2018-08-16T10:49:05.941Z,38.50
2018-08-16T10:51:34.553Z,39.80
2018-08-16T10:54:03.183Z,40.70
2018-08-16T10:56:31.753Z,42.70
2018-08-16T10:59:00.423Z,39.90
2018-08-16T11:01:29.117Z,37.60
2018-08-16T11:03:57.578Z,39.30
2018-08-16T11:06:26.172Z,38.60
2018-08-16T11:08:54.736Z,38.10
2018-08-16T11:11:23.289Z,39.70
2018-08-16T11:13:51.871Z,39.40
2018-08-16T11:16:20.445Z,38.60
2018-08-16T11:18:49.044Z,38.80
2018-08-16T11:21:17.632Z,39.10
2018-08-16T11:23:46.218Z,38.40
2018-08-16T11:26:14.779Z,38.00
2018-08-16T11:28:45.411Z,37.60
2018-08-16T11:31:14.057Z,39.60
2018-08-16T11:33:42.621Z,38.40
2018-08-16T11:36:11.156Z,40.10
2018-08-16T11:38:40.025Z,38.40
2018-08-16T11:41:09.752Z,36.40
2018-08-16T11:43:38.288Z,34.20
2018-08-16T11:46:06.879Z,35.30
2018-08-16T11:48:35.440Z,35.90
2018-08-16T11:51:04.015Z,37.30
2018-08-16T11:53:32.566Z,34.70
2018-08-16T11:56:01.139Z,38.60
2018-08-16T11:58:29.711Z,38.10
2018-08-16T12:00:58.256Z,36.90
2018-08-16T12:03:26.817Z,38.20
2018-08-16T12:05:55.427Z,37.10
2018-08-16T12:08:23.973Z,36.10
2018-08-16T12:10:52.516Z,35.70
2018-08-16T12:13:21.118Z,38.20
2018-08-16T12:15:49.760Z,37.20
2018-08-16T12:18:18.356Z,38.50
2018-08-16T12:20:46.968Z,39.40
2018-08-16T12:23:15.487Z,39.20
2018-08-16T12:25:44.029Z,38.70
2018-08-16T12:28:14.084Z,38.90
2018-08-16T12:30:42.628Z,40.40
2018-08-16T12:33:11.210Z,38.90
2018-08-16T12:35:39.787Z,37.00
2018-08-16T12:38:08.564Z,37.20
2018-08-16T12:40:38.846Z,35.00
2018-08-16T12:43:07.441Z,34.50
2018-08-16T12:45:36.017Z,35.30
2018-08-16T12:48:04.616Z,36.50
2018-08-16T12:50:34.056Z,37.00
2018-08-16T12:53:02.689Z,36.70
2018-08-16T12:55:31.291Z,37.50
2018-08-16T12:57:59.867Z,37.20
2018-08-16T13:00:29.540Z,37.00
2018-08-16T13:02:58.150Z,38.00
2018-08-16T13:05:26.829Z,37.80
2018-08-16T13:07:55.345Z,37.80
2018-08-16T13:10:23.891Z,37.80
2018-08-16T13:12:52.407Z,37.80
2018-08-16T13:15:21.697Z,37.00
2018-08-16T13:17:50.301Z,37.00
2018-08-16T13:20:18.824Z,37.70
2018-08-16T13:22:47.420Z,36.70
2018-08-16T13:25:16.005Z,37.20
2018-08-16T13:27:44.651Z,36.10
2018-08-16T13:30:13.503Z,37.30
2018-08-16T13:32:42.040Z,37.60
2018-08-16T13:35:10.657Z,37.20
2018-08-16T13:37:39.190Z,36.50
2018-08-16T13:40:08.638Z,38.20
2018-08-16T13:42:37.281Z,37.20
2018-08-16T13:45:06.030Z,36.60
2018-08-16T13:47:34.643Z,35.70
2018-08-16T13:50:03.252Z,37.60
2018-08-16T13:52:31.972Z,38.20
2018-08-16T13:55:00.720Z,37.50
2018-08-16T13:57:29.292Z,38.00
2018-08-16T13:59:57.862Z,36.90
2018-08-16T14:02:26.418Z,35.30
2018-08-16T14:04:54.979Z,35.50
2018-08-16T14:07:23.614Z,35.60
2018-08-16T14:09:52.312Z,33.20
2018-08-16T14:12:20.973Z,35.20
2018-08-16T14:14:49.516Z,33.70
2018-08-16T14:17:18.204Z,33.40
2018-08-16T14:19:46.750Z,34.50
2018-08-16T14:22:15.510Z,34.60
2018-08-16T14:24:44.136Z,36.90
2018-08-16T14:27:12.683Z,34.20
2018-08-16T14:29:41.267Z,33.60
2018-08-16T14:32:09.971Z,34.00
2018-08-16T14:34:38.482Z,34.00
2018-08-16T14:37:07.095Z,33.10
2018-08-16T14:39:35.628Z,32.60
2018-08-16T14:42:04.351Z,34.60
2018-08-16T14:44:32.871Z,34.60
2018-08-16T14:47:01.504Z,33.30
2018-08-16T14:49:30.125Z,33.40
2018-08-16T14:51:58.655Z,33.70
2018-08-16T14:54:27.279Z,32.40
2018-08-16T14:56:55.809Z,32.60
2018-08-16T14:59:24.448Z,33.10
2018-08-16T15:01:52.980Z,32.20
2018-08-16T15:04:22.028Z,32.70
2018-08-16T15:06:50.616Z,33.30
2018-08-16T15:09:19.219Z,33.00
2018-08-16T15:11:47.764Z,32.80
2018-08-16T15:14:16.401Z,33.50
2018-08-16T15:16:45.044Z,33.70
2018-08-16T15:19:13.581Z,34.20
2018-08-16T15:21:42.115Z,34.50
2018-08-16T15:24:10.631Z,33.70
2018-08-16T15:26:39.240Z,34.20
2018-08-16T15:29:07.793Z,33.50
2018-08-16T15:31:36.476Z,34.20
2018-08-16T15:34:05.093Z,33.10
2018-08-16T15:36:33.702Z,33.40
2018-08-16T15:39:02.309Z,34.00
2018-08-16T15:41:30.878Z,34.00
2018-08-16T15:43:59.405Z,34.10
2018-08-16T15:46:27.950Z,34.20
2018-08-16T15:48:56.539Z,33.90
2018-08-16T15:51:25.155Z,34.50
2018-08-16T15:53:53.806Z,34.00
2018-08-16T15:56:22.356Z,33.50
2018-08-16T15:58:50.900Z,34.00
2018-08-16T16:01:20.187Z,33.50
2018-08-16T16:03:48.763Z,33.10
2018-08-16T16:06:17.352Z,34.20
2018-08-16T16:08:45.962Z,34.00
2018-08-16T16:11:14.468Z,34.00
2018-08-16T16:13:43.020Z,34.70
2018-08-16T16:16:11.577Z,35.30
2018-08-16T16:18:40.163Z,34.80
2018-08-16T16:21:08.708Z,35.80
2018-08-16T16:23:37.259Z,34.10
2018-08-16T16:26:05.923Z,34.20
2018-08-16T16:28:34.488Z,35.00
2018-08-16T16:31:03.125Z,34.50
2018-08-16T16:33:31.894Z,34.30
2018-08-16T16:36:00.469Z,35.80
2018-08-16T16:38:29.140Z,36.10
2018-08-16T16:40:57.734Z,34.50
2018-08-16T16:43:27.190Z,35.00
2018-08-16T16:45:59.718Z,35.00
2018-08-16T16:48:28.331Z,35.40
2018-08-16T16:50:56.925Z,35.40
2018-08-16T16:53:25.466Z,34.80
2018-08-16T16:55:54.015Z,34.20
2018-08-16T16:58:22.560Z,35.00
2018-08-16T17:00:51.258Z,35.90
2018-08-16T17:03:19.795Z,36.60
2018-08-16T17:05:48.338Z,35.10
2018-08-16T17:08:16.929Z,35.90
2018-08-16T17:10:45.578Z,35.60
2018-08-16T17:13:14.131Z,36.20
2018-08-16T17:15:42.787Z,37.10
2018-08-16T17:18:11.481Z,38.40
2018-08-16T17:20:40.035Z,35.90
2018-08-16T17:23:08.612Z,36.50
2018-08-16T17:25:37.660Z,37.80
2018-08-16T17:28:06.338Z,37.10
2018-08-16T17:30:34.953Z,38.00
2018-08-16T17:33:03.532Z,38.40
2018-08-16T17:35:32.118Z,38.90
2018-08-16T17:38:00.755Z,38.40
2018-08-16T17:40:29.278Z,38.80
2018-08-16T17:42:57.889Z,38.60
2018-08-16T17:45:26.522Z,37.80
2018-08-16T17:47:55.090Z,38.20
2018-08-16T17:50:23.707Z,38.30
2018-08-16T17:52:52.235Z,39.30
2018-08-16T17:55:20.851Z,39.30
2018-08-16T17:57:49.404Z,40.20
2018-08-16T18:00:18.055Z,40.20
2018-08-16T18:02:46.702Z,40.80
2018-08-16T18:05:15.283Z,41.10
2018-08-16T18:07:43.854Z,40.70
2018-08-16T18:10:12.418Z,40.40
2018-08-16T18:12:41.030Z,39.90
2018-08-16T18:15:11.588Z,40.00
2018-08-16T18:17:40.202Z,40.00
2018-08-16T18:20:08.771Z,40.00
2018-08-16T18:22:37.948Z,41.30
2018-08-16T18:25:07.257Z,41.20
2018-08-16T18:27:35.863Z,41.40
2018-08-16T18:30:04.885Z,41.70
2018-08-16T18:32:33.493Z,41.60
2018-08-16T18:35:02.150Z,41.90
2018-08-16T18:37:30.730Z,41.90
2018-08-16T18:39:59.396Z,42.50
2018-08-16T18:42:27.961Z,43.60
2018-08-16T18:44:56.683Z,43.80
2018-08-16T18:47:25.532Z,46.20
2018-08-16T18:49:54.091Z,48.50
2018-08-16T18:52:22.859Z,49.00
2018-08-16T18:54:51.428Z,49.50
2018-08-16T18:57:20.011Z,50.10
2018-08-16T18:59:48.583Z,50.00
2018-08-16T19:02:17.157Z,51.70
2018-08-16T19:04:45.704Z,52.00
2018-08-16T19:07:14.324Z,52.20
2018-08-16T19:09:43.051Z,52.40
2018-08-16T19:12:11.655Z,53.00
2018-08-16T19:14:40.205Z,52.40
2018-08-16T19:17:08.846Z,50.30
2018-08-16T19:19:37.419Z,50.40
2018-08-16T19:22:06.231Z,52.00
2018-08-16T19:24:34.752Z,53.30
2018-08-16T19:27:03.349Z,54.20
2018-08-16T19:29:32.595Z,54.30
2018-08-16T19:32:01.224Z,54.80
2018-08-16T19:34:29.764Z,55.00
2018-08-16T19:36:58.279Z,54.20
2018-08-16T19:39:26.860Z,55.00
2018-08-16T19:41:55.670Z,54.10
2018-08-16T19:44:24.268Z,55.30
2018-08-16T19:46:52.783Z,55.90
2018-08-16T19:49:21.335Z,56.20
2018-08-16T19:51:49.962Z,55.50
2018-08-16T19:54:18.705Z,56.10
2018-08-16T19:56:47.357Z,56.90
2018-08-16T19:59:15.941Z,57.20
2018-08-16T20:01:44.543Z,57.40
2018-08-16T20:04:13.099Z,57.50
2018-08-16T20:06:41.693Z,57.50
2018-08-16T20:09:11.007Z,57.40
2018-08-16T20:11:39.606Z,57.50
2018-08-16T20:14:08.157Z,57.30
2018-08-16T20:16:36.856Z,55.70
2018-08-16T20:19:05.595Z,55.40
2018-08-16T20:21:34.128Z,55.60
2018-08-16T20:24:02.681Z,56.50
2018-08-16T20:26:31.346Z,58.10
2018-08-16T20:28:59.937Z,58.90
2018-08-16T20:31:28.480Z,59.10
2018-08-16T20:33:57.003Z,59.60
2018-08-16T20:36:25.592Z,58.90
2018-08-16T20:38:54.180Z,59.50
2018-08-16T20:41:22.721Z,58.60
2018-08-16T20:43:51.257Z,59.00
2018-08-16T20:46:19.837Z,60.10
2018-08-16T20:48:48.389Z,60.50
2018-08-16T20:51:16.924Z,60.50
2018-08-16T20:53:45.410Z,61.10
2018-08-16T20:56:13.958Z,61.00
2018-08-16T20:58:42.478Z,61.10
2018-08-16T21:01:11.007Z,61.30
2018-08-16T21:03:39.542Z,61.70
2018-08-16T21:06:08.419Z,62.00
2018-08-16T21:08:36.940Z,62.50
2018-08-16T21:11:05.617Z,63.10
2018-08-16T21:13:34.170Z,63.10
2018-08-16T21:16:02.978Z,63.70
2018-08-16T21:18:31.775Z,63.90
2018-08-16T21:21:00.315Z,63.50
2018-08-16T21:23:28.872Z,63.90
2018-08-16T21:25:57.367Z,64.20
2018-08-16T21:28:25.884Z,64.10
2018-08-16T21:30:54.427Z,64.40
2018-08-16T21:33:22.949Z,64.30
2018-08-16T21:35:51.449Z,64.70
2018-08-16T21:38:20.049Z,65.10
2018-08-16T21:40:48.615Z,65.10
2018-08-16T21:43:17.163Z,65.40
2018-08-16T21:45:45.697Z,65.40
2018-08-16T21:48:14.248Z,65.60
2018-08-16T21:50:42.798Z,65.90
2018-08-16T21:53:11.328Z,66.50
2018-08-16T21:55:39.932Z,66.20
2018-08-16T21:58:08.486Z,66.10
2018-08-16T22:00:52.376Z,66.00
2018-08-16T22:03:28.524Z,66.40
2018-08-16T22:06:07.716Z,66.20
2018-08-16T22:08:42.310Z,66.30
2018-08-16T22:11:11.178Z,66.60
2018-08-16T22:13:40.099Z,66.30
2018-08-16T22:16:08.837Z,66.50
2018-08-16T22:18:37.864Z,66.00
2018-08-16T22:21:06.429Z,63.30
2018-08-16T22:23:34.969Z,63.70
2018-08-16T22:26:03.573Z,62.80
2018-08-16T22:28:32.149Z,61.10
2018-08-16T22:31:01.255Z,59.40
2018-08-16T22:33:30.229Z,60.20
2018-08-16T22:35:58.800Z,60.70
2018-08-16T22:38:27.329Z,58.60
2018-08-16T22:40:55.927Z,59.00
2018-08-16T22:43:24.488Z,59.10
2018-08-16T22:45:53.038Z,57.30
2018-08-16T22:48:21.605Z,56.10
2018-08-16T22:50:50.194Z,55.30
2018-08-16T22:53:18.704Z,55.40
2018-08-16T22:55:47.245Z,55.70
2018-08-16T22:58:15.777Z,57.40
2018-08-16T23:00:44.321Z,56.50
2018-08-16T23:03:13.026Z,57.30
2018-08-16T23:05:41.598Z,56.70
2018-08-16T23:08:10.148Z,57.30
2018-08-16T23:10:38.709Z,57.30
2018-08-16T23:13:07.305Z,57.70
2018-08-16T23:15:35.837Z,58.80
2018-08-16T23:18:04.474Z,59.70
2018-08-16T23:20:33.015Z,60.10
2018-08-16T23:23:01.582Z,60.60
2018-08-16T23:25:30.110Z,62.00
2018-08-16T23:27:58.647Z,61.70
2018-08-16T23:30:27.166Z,62.70
2018-08-16T23:32:55.666Z,63.90
2018-08-16T23:35:24.195Z,63.20
2018-08-16T23:37:52.785Z,63.70
2018-08-16T23:40:21.383Z,63.50
2018-08-16T23:42:50.042Z,63.50
2018-08-16T23:45:18.576Z,64.10
2018-08-16T23:47:58.516Z,63.80
2018-08-16T23:50:27.110Z,64.00
2018-08-16T23:52:55.664Z,64.70
2018-08-16T23:55:24.230Z,64.70
2018-08-16T23:57:52.751Z,65.00
